Have a Safe July 4th! 

Flight Track Log - Related Links

Times and Time Zones

All times are in EDT time to prevent confusion due to time zone crossing. See the N2600G flight status page for this flight to view local times or setup timezone preferences in your user account.

Time Position Orientation Groundspeed Altitude Reporting Facility
EDT Latitude Longitude Course Direction KTS MPH feet Rate Location/Type
Sat 12:35:42 PM 33.9000 -84.3333 205° Southwest 97 112 2,900  Level Atlanta TRACON
Sat 12:39:36 PM 33.7833 -84.4000 180° South 137 158 4,900 333 Climbing Atlanta TRACON
Sat 12:41:42 PM 33.7000 -84.4000 180° South 139 160 4,900  Level Atlanta TRACON
Sat 12:43:42 PM 33.6167 -84.4000 180° South 155 178 4,900  Level Atlanta TRACON
Sat 12:46:36 PM 33.5000 -84.4000 180° South 144 166 4,900 -77 Level Atlanta TRACON
Sat 12:47:36 PM 33.4667 -84.4000 209° Southwest 151 174 4,600 -381 Descending Atlanta TRACON
Sat 12:48:42 PM 33.4167 -84.4333 220° Southwest 150 173 4,100 -368 Descending Atlanta TRACON
Sat 12:49:30 PM 33.4000 -84.4500 220° Southwest 146 168 3,900 -158 Descending Atlanta TRACON
Sat 12:50:36 PM 33.3667 -84.4833 203° Southwest 134 154 3,800 50 Descending Atlanta TRACON
Sat 12:51:30 PM 33.3333 -84.5000 203° Southwest 132 152 4,000 53 Climbing Atlanta TRACON
Sat 12:52:30 PM 33.3000 -84.5167 220° Southwest 139 160 3,900  Descending Atlanta TRACON
Sat 12:53:30 PM 33.2667 -84.5500 203° Southwest 139 160 4,000 50 Climbing Atlanta TRACON
Sat 12:54:30 PM 33.2333 -84.5667 220° Southwest 136 157 4,000 -150 Level Atlanta TRACON
Sat 12:55:30 PM 33.2000 -84.6000 203° Southwest 141 162 3,700 -50 Descending Atlanta TRACON
Sat 12:56:30 PM 33.1667 -84.6167 203° Southwest 132 152 3,900 158 Climbing Atlanta TRACON
Sat 12:57:24 PM 33.1333 -84.6333 239° Southwest 134 154 4,000 56 Climbing Atlanta TRACON
Sat 12:58:18 PM 33.1167 -84.6667 203° Southwest 135 155 4,000  Level Atlanta TRACON
Sat 12:59:18 PM 33.0833 -84.6833 203° Southwest 139 160 4,000  Level Atlanta TRACON
Sat 01:00:19 PM 33.0500 -84.7000 220° Southwest 135 155 4,000 -50 Level Atlanta TRACON
Sat 01:01:18 PM 33.0167 -84.7333 203° Southwest 136 157 3,900 -50 Descending Atlanta TRACON
Sat 01:02:18 PM 32.9833 -84.7500 203° Southwest 133 153 3,900 100 Level Atlanta TRACON
Sat 01:03:18 PM 32.9500 -84.7667 220° Southwest 132 152 4,100  Climbing Atlanta TRACON
Sat 01:04:18 PM 32.9167 -84.8000 203° Southwest 139 160 3,900 -105 Descending Atlanta TRACON
Sat 01:05:12 PM 32.8833 -84.8167 203° Southwest 136 157 3,900 -53 Level Atlanta TRACON
Sat 01:06:12 PM 32.8500 -84.8333 239° Southwest 136 157 3,800  Descending Atlanta TRACON
Sat 01:07:12 PM 32.8333 -84.8667 203° Southwest 131 151 3,900 100 Climbing Atlanta TRACON
Sat 01:08:12 PM 32.8000 -84.8833 203° Southwest 132 152 4,000  Climbing Atlanta TRACON
Sat 01:09:12 PM 32.7667 -84.9000 220° Southwest 135 155 3,900 -50 Descending Atlanta TRACON
Sat 01:10:12 PM 32.7333 -84.9333 203° Southwest 135 155 3,900  Level Atlanta TRACON
Sat 01:11:12 PM 32.7000 -84.9500 203° Southwest 138 159 3,900 50 Level Atlanta TRACON
Sat 01:12:12 PM 32.6667 -84.9667 220° Southwest 132 152 4,000  Climbing Atlanta TRACON
Sat 01:13:06 PM 32.6333 -85.0000 203° Southwest 136 157 3,900 -53 Descending Atlanta TRACON
Sat 01:14:06 PM 32.6000 -85.0167 203° Southwest 132 152 3,900  Level Atlanta TRACON
Sat 01:15:00 PM 32.5667 -85.0333 203° Southwest 134 154 3,900  Level Atlanta TRACON
Sat 01:16:00 PM 32.5333 -85.0500 220° Southwest 135 155 3,900 -50 Level Atlanta TRACON
Sat 01:17:00 PM 32.5000 -85.0833 203° Southwest 136 157 3,800 -50 Descending Atlanta TRACON
Sat 01:18:00 PM 32.4667 -85.1000 203° Southwest 133 153 3,800 50 Level Atlanta TRACON
Sat 01:19:00 PM 32.4333 -85.1167 220° Southwest 133 153 3,900 50 Climbing Atlanta TRACON
Sat 01:20:00 PM 32.4000 -85.1500 203° Southwest 137 158 3,900  Level Atlanta TRACON
Sat 01:21:00 PM 32.3667 -85.1667 220° Southwest 139 160 3,900 -50 Level Atlanta TRACON
Sat 01:22:00 PM 32.3500 -85.1833 220° Southwest 135 155 3,800  Descending Atlanta TRACON
Sat 01:23:00 PM 32.3167 -85.2167 203° Southwest 133 153 3,900 100 Climbing Atlanta TRACON
Sat 01:24:00 PM 32.2833 -85.2333 203° Southwest 136 157 4,000 100 Climbing Atlanta TRACON
Sat 01:25:00 PM 32.2500 -85.2500 220° Southwest 133 153 4,100  Climbing Atlanta TRACON
Sat 01:26:00 PM 32.2167 -85.2833 203° Southwest 139 160 4,000 -50 Descending Atlanta TRACON
Sat 01:27:00 PM 32.1833 -85.3000 203° Southwest 138 159 4,000  Level Atlanta TRACON
Sat 01:27:55 PM 32.1500 -85.3167 213° Southwest 136 157 4,000  Level Atlanta TRACON
Sat 01:29:23 PM 32.1008 -85.3547 211° Southwest 136 157 4,000 -40 Level Jacksonville Center
Sat 01:30:24 PM 32.0669 -85.3783 207° Southwest 138 159 3,900  Descending Jacksonville Center
Sat 01:31:24 PM 32.0311 -85.3994 212° Southwest 139 160 4,000  Climbing Jacksonville Center
Sat 01:32:25 PM 31.9992 -85.4231 209° Southwest 137 158 3,900 -49 Descending Jacksonville Center
Sat 01:33:26 PM 31.9675 -85.4442 209° Southwest 135 155 3,900  Level Jacksonville Center
Sat 01:34:26 PM 31.9317 -85.4678 209° Southwest 136 157 3,900 50 Level Jacksonville Center
Sat 01:35:27 PM 31.8997 -85.4889 207° Southwest 134 154 4,000 52 Climbing Jacksonville Center
Sat 01:36:22 PM 31.8725 -85.5053 211° Southwest 132 152 4,000 -52 Level Jacksonville Center
Sat 01:37:22 PM 31.8364 -85.5311 207° Southwest 136 157 3,900 -50 Descending Jacksonville Center
Sat 01:38:23 PM 31.8047 -85.5497 208° Southwest 135 155 3,900 50 Level Jacksonville Center
Sat 01:39:23 PM 31.7708 -85.5708 206° Southwest 135 155 4,000  Climbing Jacksonville Center
Sat 01:40:30 PM 31.7350 -85.5917 200° South 133 153 3,900 -94 Descending Jacksonville Center
Sat 01:41:30 PM 31.6969 -85.6078 210° Southwest 135 155 3,800  Descending Jacksonville Center
Sat 01:42:31 PM 31.6653 -85.6289 192° South 132 152 3,900 49 Climbing Jacksonville Center
Sat 01:43:32 PM 31.6294 -85.6375 191° South 130 150 3,900  Level Jacksonville Center
Sat 01:44:32 PM 31.5917 -85.6461 189° South 135 155 3,900 50 Level Jacksonville Center
Sat 01:45:33 PM 31.5561 -85.6525 189° South 134 154 4,000  Climbing Jacksonville Center
Sat 01:46:39 PM 31.5119 -85.6608 188° South 136 157 3,900  Descending Jacksonville Center
Sat 01:47:40 PM 31.4744 -85.6669 201° Southwest 138 159 4,000  Climbing Jacksonville Center
Sat 01:48:41 PM 31.4386 -85.6831 210° Southwest 143 165 3,900 -47 Descending Jacksonville Center
Sat 01:49:47 PM 31.4047 -85.7064 213° Southwest 138 159 3,900 45 Level Jacksonville Center
Sat 01:50:54 PM 31.3683 -85.7344 215° Southwest 136 157 4,000 47 Climbing Jacksonville Center
Sat 01:51:55 PM 31.3367 -85.7603 212° Southwest 136 157 4,000 -50 Level Jacksonville Center
Sat 01:52:55 PM 31.3047 -85.7836 215° Southwest 138 159 3,900  Descending Jacksonville Center
Sat 01:53:44 PM 31.2792 -85.8047 213° Southwest 134 154 4,000 52 Climbing Jacksonville Center
Sat 01:54:50 PM 31.2453 -85.8303 215° Southwest 133 153 4,000 -47 Level Jacksonville Center
Sat 01:55:51 PM 31.2133 -85.8561 212° Southwest 137 158 3,900 -98 Descending Jacksonville Center
Sat 02:03:32 PM 30.9824 -86.0257 208° Southwest  Level FlightAware Approximate
Sat 02:04:32 PM 30.9511 -86.0448 212° Southwest  Level FlightAware Approximate
Sat 02:05:32 PM 30.9211 -86.0670 212° Southwest  Level FlightAware Approximate
Sat 02:06:32 PM 30.8912 -86.0893 212° Southwest  Level FlightAware Approximate
Sat 02:07:32 PM 30.8612 -86.1115 212° Southwest  Level FlightAware Approximate
Sat 02:08:32 PM 30.8312 -86.1337 212° Southwest  Level FlightAware Approximate
Sat 02:09:32 PM 30.8013 -86.1558 212° Southwest  Level FlightAware Approximate
Sat 02:10:32 PM 30.7713 -86.1780 212° Southwest  Level FlightAware Approximate
Sat 02:11:32 PM 30.7413 -86.2001 211° Southwest  Level FlightAware Approximate
Sat 02:12:32 PM 30.7108 -86.2211 213° Southwest  Level FlightAware Approximate
Sat 02:13:32 PM 30.6809 -86.2435 213° Southwest  Level FlightAware Approximate
Sat 02:14:32 PM 30.6511 -86.2659 213° Southwest  Level FlightAware Approximate
Sat 02:15:32 PM 30.6213 -86.2883 213° Southwest  Level FlightAware Approximate
Sat 02:16:32 PM 30.5914 -86.3106 215° Southwest  Level FlightAware Approximate
Sat 02:17:32 PM 30.5622 -86.3340 216° Southwest  Level FlightAware Approximate
Sat 02:18:32 PM 30.5335 -86.3583 215° Southwest  Level Estimated
Sat 02:19:32 PM 30.4888 -86.3941 217° Southwest  Level FlightAware Approximate
Sat 02:20:32 PM 30.4604 -86.4188 213° Southwest  Level Estimated
Sat 02:21:32 PM 30.4297 -86.4424 220° Southwest  Level FlightAware Approximate
Sat 02:22:32 PM 30.4026 -86.4690 220° Southwest  Level Estimated
Sat 02:23:32 PM 30.3755 -86.4955 220° Southwest  Level Estimated

Login

Don't have an account? Register now (free) for customized features, flight alerts, and more!